createdAt,value
2019-02-08T00:00:37.959Z,7.20
2019-02-08T00:04:56.946Z,7.20
2019-02-08T00:09:16.286Z,7.30
2019-02-08T00:13:35.487Z,7.30
2019-02-08T00:17:54.352Z,7.30
2019-02-08T00:22:13.327Z,7.40
2019-02-08T00:26:32.195Z,7.30
2019-02-08T00:30:50.958Z,7.30
2019-02-08T00:35:10.315Z,7.20
2019-02-08T00:39:29.079Z,7.10
2019-02-08T00:43:48.081Z,7.00
2019-02-08T00:48:07.314Z,7.00
2019-02-08T00:52:26.208Z,6.90
2019-02-08T00:56:45.118Z,6.80
2019-02-08T01:01:03.679Z,6.80
2019-02-08T01:05:23.590Z,6.70
2019-02-08T01:09:42.125Z,6.70
2019-02-08T01:14:01.054Z,6.70
2019-02-08T01:18:20.028Z,6.70
2019-02-08T01:22:39.048Z,6.60
2019-02-08T01:26:57.739Z,6.60
2019-02-08T01:31:16.894Z,6.60
2019-02-08T01:35:35.996Z,6.60
2019-02-08T01:39:54.606Z,6.60
2019-02-08T01:44:13.960Z,6.60
2019-02-08T01:48:32.948Z,6.60
2019-02-08T01:52:52.255Z,6.60
2019-02-08T01:57:11.298Z,6.60
2019-02-08T02:01:30.010Z,6.70
2019-02-08T02:05:48.671Z,6.70
2019-02-08T02:10:12.868Z,6.70
2019-02-08T02:14:31.690Z,6.70
2019-02-08T02:18:50.846Z,6.70
2019-02-08T02:23:13.409Z,6.70
2019-02-08T02:27:31.823Z,6.60
2019-02-08T02:31:50.453Z,6.60
2019-02-08T02:36:09.373Z,6.50
2019-02-08T02:40:28.734Z,6.50
2019-02-08T02:44:48.204Z,6.50
2019-02-08T02:49:06.419Z,6.50
2019-02-08T02:53:25.681Z,6.50
2019-02-08T02:57:44.107Z,6.60
2019-02-08T03:02:02.251Z,6.60
2019-02-08T03:06:20.377Z,6.70
2019-02-08T03:10:38.712Z,6.80
2019-02-08T03:14:57.094Z,6.80
2019-02-08T03:19:15.496Z,6.90
2019-02-08T03:23:33.573Z,6.90
2019-02-08T03:27:52.899Z,7.00
2019-02-08T03:32:11.089Z,7.00
2019-02-08T03:36:29.304Z,7.00
2019-02-08T03:40:47.637Z,7.00
2019-02-08T03:45:08.065Z,7.00
2019-02-08T03:49:26.396Z,7.00
2019-02-08T03:53:44.536Z,7.00
2019-02-08T03:58:02.659Z,7.00
2019-02-08T04:02:20.954Z,7.00
2019-02-08T04:06:39.151Z,7.10
2019-02-08T04:10:57.356Z,7.10
2019-02-08T04:15:18.569Z,7.10
2019-02-08T04:19:36.898Z,7.10
2019-02-08T04:23:55.076Z,7.10
2019-02-08T04:28:13.136Z,7.10
2019-02-08T04:32:31.769Z,7.00
2019-02-08T04:36:50.076Z,7.00
2019-02-08T04:41:09.101Z,7.00
2019-02-08T04:45:27.349Z,7.00
2019-02-08T04:49:46.516Z,7.00
2019-02-08T04:54:05.266Z,7.00
2019-02-08T04:58:23.968Z,7.00
2019-02-08T05:02:42.756Z,7.00
2019-02-08T05:07:00.913Z,7.00
2019-02-08T05:11:19.228Z,6.90
2019-02-08T05:15:37.259Z,6.90
2019-02-08T05:19:55.533Z,6.90
2019-02-08T05:24:14.691Z,6.90
2019-02-08T05:28:32.877Z,6.80
2019-02-08T05:32:51.402Z,6.70
2019-02-08T05:37:09.707Z,6.70
2019-02-08T05:41:27.883Z,6.60
2019-02-08T05:45:46.239Z,6.50
2019-02-08T05:50:05.234Z,6.40
2019-02-08T05:54:23.507Z,6.30
2019-02-08T05:58:41.895Z,6.20
2019-02-08T06:03:01.884Z,6.20
2019-02-08T06:07:20.294Z,6.10
2019-02-08T06:11:38.366Z,6.10
2019-02-08T06:15:56.886Z,6.00
2019-02-08T06:20:17.744Z,6.00
2019-02-08T06:24:35.798Z,6.00
2019-02-08T06:28:53.996Z,5.90
2019-02-08T06:33:12.286Z,5.90
2019-02-08T06:37:32.505Z,5.90
2019-02-08T06:41:50.636Z,5.80
2019-02-08T06:46:08.972Z,5.80
2019-02-08T06:50:27.447Z,5.80
2019-02-08T06:54:45.468Z,5.80
2019-02-08T06:59:25.871Z,5.80
2019-02-08T07:04:03.547Z,5.80
2019-02-08T07:08:27.989Z,5.50
2019-02-08T07:13:04.590Z,5.90
2019-02-08T07:17:51.468Z,5.90
2019-02-08T07:22:30.877Z,5.90
2019-02-08T07:26:57.904Z,6.00
2019-02-08T07:31:34.238Z,6.00
2019-02-08T07:36:14.533Z,6.10
2019-02-08T07:41:02.894Z,6.10
2019-02-08T07:45:30.829Z,6.10
2019-02-08T07:50:00.952Z,6.10
2019-02-08T07:54:40.644Z,6.20
2019-02-08T07:59:10.042Z,6.20
2019-02-08T08:03:36.536Z,6.30
2019-02-08T08:08:14.133Z,6.40
2019-02-08T08:12:54.121Z,6.40
2019-02-08T08:17:38.325Z,6.50
2019-02-08T08:22:14.240Z,6.50
2019-02-08T08:27:07.285Z,6.60
2019-02-08T08:31:47.325Z,6.70
2019-02-08T08:36:36.735Z,6.90
2019-02-08T08:41:35.713Z,7.20
2019-02-08T08:46:39.535Z,7.40
2019-02-08T08:52:00.136Z,7.60
2019-02-08T08:57:32.705Z,7.70
2019-02-08T09:02:43.245Z,7.80
2019-02-08T09:07:37.262Z,8.00
2019-02-08T09:12:46.312Z,8.20
2019-02-08T09:18:03.035Z,8.30
2019-02-08T09:23:39.234Z,8.30
2019-02-08T09:28:46.919Z,8.30
2019-02-08T09:34:08.792Z,8.40
2019-02-08T09:39:21.435Z,8.40
2019-02-08T09:44:24.537Z,8.40
2019-02-08T09:49:43.587Z,8.50
2019-02-08T09:54:38.920Z,8.60
2019-02-08T09:59:50.830Z,8.70
2019-02-08T10:05:00.501Z,8.80
2019-02-08T10:10:09.882Z,8.80
2019-02-08T10:15:33.254Z,8.90
2019-02-08T10:20:37.681Z,9.00
2019-02-08T10:26:05.236Z,9.10
2019-02-08T10:31:28.134Z,9.20
2019-02-08T10:36:37.877Z,9.30
2019-02-08T10:42:16.472Z,9.30
2019-02-08T10:47:30.676Z,9.50
2019-02-08T10:52:41.194Z,9.70
2019-02-08T10:58:09.772Z,10.50
2019-02-08T11:03:22.912Z,11.80
2019-02-08T11:09:07.275Z,13.50
2019-02-08T11:14:19.193Z,15.00
2019-02-08T11:19:23.322Z,16.30
2019-02-08T11:23:41.997Z,17.10
2019-02-08T11:28:00.304Z,17.60
2019-02-08T11:32:18.567Z,17.70
2019-02-08T11:36:37.375Z,17.50
2019-02-08T11:40:59.177Z,17.10
2019-02-08T11:45:19.905Z,16.80
2019-02-08T11:49:38.226Z,16.30
2019-02-08T11:53:56.236Z,15.90
2019-02-08T11:58:14.393Z,15.40
2019-02-08T12:02:40.225Z,15.00
2019-02-08T12:06:52.641Z,14.70
2019-02-08T12:11:10.767Z,14.40
2019-02-08T12:15:29.063Z,14.10
2019-02-08T12:19:47.210Z,13.80
2019-02-08T12:24:06.936Z,13.60
2019-02-08T12:28:25.805Z,13.40
2019-02-08T12:32:44.360Z,13.20
2019-02-08T12:37:02.891Z,12.90
2019-02-08T12:41:21.277Z,12.80
2019-02-08T12:45:40.165Z,12.60
2019-02-08T12:49:58.363Z,12.50
2019-02-08T12:54:17.525Z,12.50
2019-02-08T12:58:35.665Z,12.40
2019-02-08T13:02:54.087Z,12.40
2019-02-08T13:07:12.565Z,12.40
2019-02-08T13:11:30.673Z,12.40
2019-02-08T13:15:48.969Z,12.40
2019-02-08T13:20:11.308Z,12.50
2019-02-08T13:24:29.392Z,12.50
2019-02-08T13:28:47.581Z,12.50
2019-02-08T13:33:07.129Z,12.50
2019-02-08T13:37:26.690Z,12.50
2019-02-08T13:41:45.956Z,12.50
2019-02-08T13:46:04.031Z,12.50
2019-02-08T13:50:24.976Z,12.50
2019-02-08T13:54:42.952Z,12.60
2019-02-08T13:59:02.407Z,12.50
2019-02-08T14:03:21.213Z,12.60
2019-02-08T14:07:39.936Z,12.70
2019-02-08T14:11:58.411Z,12.70
2019-02-08T14:16:16.479Z,12.70
2019-02-08T14:20:35.278Z,12.70
2019-02-08T14:24:55.402Z,12.70
2019-02-08T14:29:13.682Z,12.70
2019-02-08T14:33:33.023Z,12.60
2019-02-08T14:37:51.444Z,12.60
2019-02-08T14:42:09.647Z,12.60
2019-02-08T14:46:29.030Z,12.60
2019-02-08T14:50:49.939Z,12.50
2019-02-08T14:55:10.736Z,12.50
2019-02-08T14:59:32.032Z,12.50
2019-02-08T15:03:52.428Z,12.50
2019-02-08T15:08:12.300Z,12.50
2019-02-08T15:12:32.206Z,12.40
2019-02-08T15:16:51.980Z,12.40
2019-02-08T15:21:11.114Z,12.40
2019-02-08T15:25:29.812Z,12.30
2019-02-08T15:29:47.970Z,12.30
2019-02-08T15:34:07.887Z,12.20
2019-02-08T15:38:26.676Z,12.20
2019-02-08T15:42:45.197Z,12.10
2019-02-08T15:47:04.160Z,12.10
2019-02-08T15:51:23.661Z,12.00
2019-02-08T15:55:43.816Z,12.00
2019-02-08T16:00:03.500Z,11.90
2019-02-08T16:04:23.412Z,11.80
2019-02-08T16:08:41.882Z,11.80
2019-02-08T16:13:01.136Z,11.60
2019-02-08T16:17:19.743Z,11.50
2019-02-08T16:21:38.354Z,11.40
2019-02-08T16:25:57.030Z,11.30
2019-02-08T16:30:19.437Z,11.10
2019-02-08T16:34:40.846Z,11.00
2019-02-08T16:38:59.149Z,10.80
2019-02-08T16:43:17.452Z,10.60
2019-02-08T16:47:35.912Z,10.50
2019-02-08T16:51:54.262Z,10.40
2019-02-08T16:56:13.563Z,10.20
2019-02-08T17:00:34.233Z,10.10
2019-02-08T17:04:52.504Z,10.00
2019-02-08T17:09:15.116Z,9.90
2019-02-08T17:13:35.220Z,9.90
2019-02-08T17:17:55.122Z,9.90
2019-02-08T17:22:14.196Z,9.80
2019-02-08T17:26:34.961Z,9.80
2019-02-08T17:30:55.297Z,9.80
2019-02-08T17:35:16.235Z,9.80
2019-02-08T17:39:34.829Z,9.80
2019-02-08T17:43:53.489Z,9.80
2019-02-08T17:48:15.228Z,9.80
2019-02-08T17:52:33.476Z,9.80
2019-02-08T17:56:52.538Z,9.70
2019-02-08T18:01:11.040Z,9.80
2019-02-08T18:05:29.352Z,9.80
2019-02-08T18:09:47.649Z,9.80
2019-02-08T18:14:08.174Z,9.80
2019-02-08T18:18:27.956Z,9.70
2019-02-08T18:22:46.447Z,9.70
2019-02-08T18:27:05.060Z,9.70
2019-02-08T18:31:23.656Z,9.60
2019-02-08T18:35:45.055Z,9.50
2019-02-08T18:40:05.647Z,9.40
2019-02-08T18:44:24.526Z,9.30
2019-02-08T18:48:42.976Z,9.30
2019-02-08T18:53:01.446Z,9.20
2019-02-08T18:57:19.520Z,9.10
2019-02-08T19:01:39.142Z,9.10
2019-02-08T19:05:57.165Z,9.00
2019-02-08T19:10:18.130Z,9.00
2019-02-08T19:14:37.224Z,8.90
2019-02-08T19:18:55.663Z,8.80
2019-02-08T19:23:13.792Z,8.80
2019-02-08T19:27:32.303Z,8.70
2019-02-08T19:31:51.304Z,8.60
2019-02-08T19:36:09.753Z,8.60
2019-02-08T19:40:34.335Z,8.50
2019-02-08T19:44:52.716Z,8.50
2019-02-08T19:49:11.056Z,8.40
2019-02-08T19:53:29.608Z,8.40
2019-02-08T19:57:48.290Z,8.30
2019-02-08T20:02:07.444Z,8.30
2019-02-08T20:06:25.784Z,8.20
2019-02-08T20:10:46.969Z,8.20
2019-02-08T20:15:06.187Z,8.20
2019-02-08T20:19:24.298Z,8.10
2019-02-08T20:23:43.462Z,8.10
2019-02-08T20:28:01.808Z,8.00
2019-02-08T20:32:20.413Z,8.00
2019-02-08T20:36:39.569Z,8.00
2019-02-08T20:40:59.662Z,8.00
2019-02-08T20:45:25.593Z,8.00
2019-02-08T20:49:44.281Z,8.10
2019-02-08T20:54:03.949Z,8.10
2019-02-08T20:58:24.224Z,8.00
2019-02-08T21:02:42.492Z,8.10
2019-02-08T21:07:00.785Z,8.00
2019-02-08T21:11:19.099Z,8.00
2019-02-08T21:15:37.947Z,8.00
2019-02-08T21:19:56.360Z,7.90
2019-02-08T21:24:15.131Z,7.90
2019-02-08T21:28:33.786Z,7.80
2019-02-08T21:32:52.255Z,7.70
2019-02-08T21:37:10.390Z,7.70
2019-02-08T21:41:28.755Z,7.60
2019-02-08T21:45:47.399Z,7.60
2019-02-08T21:50:08.410Z,7.60
2019-02-08T21:54:26.609Z,7.50
2019-02-08T21:58:45.499Z,7.50
2019-02-08T22:03:07.187Z,7.40
2019-02-08T22:07:25.387Z,7.40
2019-02-08T22:11:44.393Z,7.30
2019-02-08T22:16:02.701Z,7.20
2019-02-08T22:20:21.476Z,7.20
2019-02-08T22:24:40.319Z,7.20
2019-02-08T22:28:58.590Z,7.10
2019-02-08T22:33:17.235Z,7.10
2019-02-08T22:37:36.648Z,7.10
2019-02-08T22:41:55.394Z,7.00
2019-02-08T22:46:15.293Z,6.90
2019-02-08T22:50:34.163Z,6.90
2019-02-08T22:54:52.965Z,6.90
2019-02-08T22:59:11.810Z,6.90
2019-02-08T23:03:31.209Z,6.80
2019-02-08T23:07:50.082Z,6.80
2019-02-08T23:12:08.884Z,6.70
2019-02-08T23:16:28.012Z,6.70
2019-02-08T23:20:46.332Z,6.60
2019-02-08T23:25:05.203Z,6.60
2019-02-08T23:29:29.956Z,6.60
2019-02-08T23:33:43.019Z,6.60
2019-02-08T23:38:01.153Z,6.70
2019-02-08T23:42:19.880Z,6.80
2019-02-08T23:46:38.107Z,7.00
2019-02-08T23:50:56.322Z,7.10
2019-02-08T23:55:15.467Z,7.20
2019-02-08T23:59:38.260Z,7.30
